PDT,Max TemperatureF,Mean TemperatureF,Min TemperatureF,Max Dew PointF,MeanDew PointF,Min DewpointF,Max Humidity, Mean Humidity, Min Humidity, Max Sea Level PressureIn, Mean Sea Level PressureIn, Min Sea Level PressureIn, Max VisibilityMiles, Mean VisibilityMiles, Min VisibilityMiles, Max Wind SpeedMPH, Mean Wind SpeedMPH, Max Gust SpeedMPH,PrecipitationIn, CloudCover, Events, WindDirDegrees
2012-10-1,94,76,58,50,45,42,65,36,17,30.01,29.93,29.85,10,10,9,8,2,,0.00,0,,121
2012-10-2,95,76,58,53,45,41,68,34,16,29.89,29.83,29.75,10,10,9,6,3,,0.03,0,,102
2012-10-3,92,76,61,53,44,37,55,33,18,29.88,29.83,29.78,10,10,10,9,4,,0.00,0,,140
2012-10-4,80,69,58,53,51,48,75,54,35,30.06,29.99,29.89,10,10,10,17,11,21,0.00,0,,168
2012-10-5,76,65,54,53,51,49,82,64,39,30.12,30.07,30.02,10,10,6,15,8,,0.00,1,,164
2012-10-6,75,62,50,53,50,47,93,64,44,30.06,30.00,29.94,10,10,9,8,4,,0.00,0,,105
2012-10-7,79,64,48,53,49,44,84,64,36,30.00,29.94,29.88,10,10,9,9,3,,0.00,0,,166
2012-10-8,74,64,53,48,46,44,81,57,33,30.00,29.97,29.94,10,10,10,14,8,18,0.00,0,,165
2012-10-9,75,62,49,47,45,42,82,55,32,30.04,29.97,29.91,10,10,10,8,4,,0.00,1,,97
2012-10-10,78,64,50,48,45,42,77,49,31,29.94,29.88,29.82,10,10,10,9,3,,0.00,2,,142
2012-10-11,71,60,51,51,49,47,85,68,49,29.96,29.87,29.82,10,10,10,22,10,28,0.00,2,Rain,161
2012-10-12,66,60,54,49,49,48,80,67,53,30.22,30.10,29.96,10,10,10,10,6,,0.00,8,,170
2012-10-13,75,60,46,51,48,44,92,68,42,30.30,30.23,30.15,10,8,2,9,2,,0.00,0,,56
2012-10-14,78,64,50,55,50,46,85,59,39,30.22,30.13,30.05,10,10,8,8,5,,0.00,0,,26
2012-10-15,83,68,53,55,52,48,82,57,34,30.09,30.00,29.92,10,10,6,9,3,,0.00,0,,314
2012-10-16,87,72,58,57,52,44,75,51,30,29.97,29.90,29.84,10,10,9,10,4,,0.00,0,,299
2012-10-17,85,70,55,41,35,32,45,31,16,29.92,29.87,29.81,10,10,7,16,8,,0.00,0,,327
2012-10-18,87,71,55,53,43,35,63,39,23,29.99,29.95,29.89,10,9,2,13,3,,0.00,0,,168
2012-10-19,81,68,57,58,53,48,83,58,33,30.03,29.95,29.86,10,10,10,13,8,,0.00,0,,152
2012-10-20,75,63,51,54,51,48,92,68,45,29.87,29.79,29.74,10,7,2,10,5,,0.00,0,,145
2012-10-21,67,58,50,48,43,35,82,59,38,29.88,29.83,29.79,10,10,10,15,9,,0.00,2,,164
2012-10-22,60,54,50,54,49,42,100,90,58,29.90,29.80,29.74,10,5,2,26,17,32,0.14,8,Rain-Thunderstorm,148
2012-10-23,62,54,48,50,45,38,99,76,44,30.06,29.98,29.91,10,8,2,16,9,26,0.10,6,Rain,167
2012-10-24,64,56,49,50,47,42,97,81,52,30.19,30.08,30.02,10,9,2,17,9,,0.14,7,Rain,139
2012-10-25,66,56,48,51,46,40,92,70,48,30.29,30.24,30.20,10,10,8,18,5,25,0.00,2,,338
2012-10-26,70,56,41,50,45,38,93,66,35,30.23,30.12,30.09,10,6,0,9,4,,0.00,0,,302
2012-10-27,79,62,46,55,50,45,100,71,39,30.09,30.03,29.93,10,1,0,7,1,,0.00,0,Fog,183
2012-10-28,77,64,50,55,51,48,100,67,38,30.02,29.97,29.94,10,2,0,6,1,,0.00,0,Fog,82
2012-10-29,76,64,52,53,50,46,90,74,37,30.11,30.04,30.01,10,5,0,7,2,,0.00,0,,25
2012-10-30,76,62,49,57,51,46,98,67,42,30.07,30.00,29.94,10,9,2,8,3,,0.00,0,,138
2012-10-31,64,59,54,58,54,49,100,83,64,30.01,29.98,29.93,10,8,2,18,9,23,0.37,6,Rain,152